Data for 05/30/2017

Time Sea-Level Adjusted Pressure Absolute Pressure Temperature Relative Humidity Dew Point   
(mb) (inHg) (mb) (inHg) (C) (F) (%) (C) (F)
00:05 1022 30.18 851 25.13 14.1 57.3 50 3.9 39.1
00:10 1022 30.18 851 25.13 13.7 56.6 51 3.8 38.8
00:15 1022 30.18 851 25.13 13.6 56.4 50 3.5 38.3
00:20 1022 30.18 851 25.13 13.8 56.9 48 3.2 37.7
00:25 1022 30.18 851 25.13 14 57.1 48 3.2 37.7
00:30 1022 30.18 851 25.13 14 57.3 47 2.8 37.1
00:35 1022 30.18 851 25.13 14 57.2 47 3 37.4
00:40 1022 30.18 851 25.13 14 57.2 46 2.7 36.8
00:45 1022 30.18 851 25.13 14.2 57.5 44 2.3 36.2
00:50 1022 30.18 851 25.13 14.3 57.7 44 2.4 36.3
00:55 1022 30.18 851 25.13 14.3 57.7 44 2.3 36.2
01:00 1022 30.18 851 25.13 14.2 57.5 44 2.3 36.2
01:05 1022 30.18 851 25.13 14.2 57.5 44 2.2 35.9
01:10 1022 30.18 851 25.13 14.2 57.6 44 2.1 35.8
01:15 1022 30.18 851 25.13 14.2 57.6 44 2.3 36.2
01:20 1022 30.18 851 25.13 14 57.1 46 2.6 36.7
01:25 1022 30.18 851 25.13 13 55.4 50 2.8 37.1
01:30 1022 30.18 851 25.13 12.7 54.8 49 2.4 36.2
01:35 1022 30.18 851 25.13 12.3 54.1 51 2.6 36.7
01:40 1022 30.18 851 25.13 12 53.6 52 2.6 36.6
01:45 1022 30.18 851 25.13 11.9 53.4 53 2.6 36.7
01:50 1022 30.18 851 25.13 12 53.6 53 2.7 36.8
01:55 1022 30.18 851 25.13 11.6 53 54 2.8 37
02:00 1022 30.18 851 25.13 11.2 52.2 56 2.9 37.3
02:05 1022 30.18 851 25.13 10.9 51.6 57 2.8 37.1
02:10 1022 30.18 851 25.13 10.8 51.5 57 2.8 37
02:15 1022 30.18 851 25.13 10.9 51.6 57 2.8 37
02:20 1022 30.18 851 25.13 10.9 51.7 57 2.7 36.9
02:25 1022 30.18 851 25.13 10.8 51.5 57 2.8 37
02:30 1022 30.18 851 25.13 10.9 51.5 56 2.5 36.6
02:35 1022 30.18 851 25.13 11 51.8 55 2.4 36.3
02:40 1022 30.18 851 25.13 11.1 51.9 56 2.6 36.7
02:45 1022 30.18 851 25.13 10.9 51.6 56 2.4 36.4
02:50 1022 30.18 851 25.13 10.9 51.5 54 2.1 35.7
02:55 1022 30.18 851 25.13 10.8 51.5 55 2.1 35.7
03:00 1022 30.18 851 25.13 10.9 51.6 53 1.9 35.4
03:05 1022 30.18 851 25.13 11 51.9 53 2 35.5
03:10 1022 30.18 851 25.13 11.1 52 53 1.9 35.4
03:15 1022 30.18 851 25.13 11.3 52.3 52 1.9 35.4
03:20 1022 30.18 851 25.13 11.2 52.2 53 2.1 35.8
03:25 1022 30.18 851 25.13 11 51.7 54 2.1 35.8
03:30 1022 30.18 851 25.13 10.6 51.1 54 1.8 35.3
03:35 1022 30.18 851 25.13 10.6 51.2 52 1.4 34.5
03:40 1022 30.18 851 25.13 10.8 51.4 52 1.4 34.6
03:45 1022 30.18 851 25.13 11 51.7 52 1.5 34.7
03:50 1022 30.18 851 25.13 10.8 51.4 53 1.6 34.9
03:55 1022 30.18 851 25.13 10.6 51 55 2 35.5
04:00 1022 30.18 851 25.13 10.2 50.3 57 2.2 35.9
04:05 1022 30.18 851 25.13 9.9 49.8 57 1.9 35.3
04:10 1022 30.18 851 25.13 10.2 50.4 54 1.3 34.3
04:15 1022 30.18 851 25.13 10.4 50.8 55 1.8 35.2
04:20 1022 30.18 851 25.13 10.3 50.5 56 1.9 35.3
04:25 1022 30.18 851 25.13 10.2 50.3 56 1.8 35.3
04:30 1022 30.18 851 25.13 10.2 50.4 54 1.5 34.7
04:35 1022 30.18 851 25.13 10.3 50.6 54 1.5 34.8
04:40 1022 30.18 851 25.13 10.2 50.4 56 1.8 35.2
04:45 1022 30.18 851 25.13 10.2 50.3 52 0.8 33.5
04:50 1022 30.18 851 25.13 10.3 50.5 51 0.7 33.3
04:55 1022 30.18 851 25.13 10.1 50.2 51 0.5 32.9
05:00 1022 30.18 851 25.13 10.8 51.4 50 0.8 33.4
05:05 1022 30.18 851 25.13 11.1 52 49 1 33.7
05:10 1022 30.18 851 25.13 10.9 51.7 50 0.9 33.6
05:15 1022 30.18 851 25.13 10.8 51.4 51 1.1 33.9
05:20 1022 30.18 851 25.13 10.6 51.1 52 1.2 34.2
05:25 1022 30.18 851 25.13 10.4 50.7 55 1.9 35.4
05:30 1022 30.18 851 25.13 10.5 50.8 55 1.9 35.5
05:35 1022 30.18 851 25.13 10.7 51.2 55 2.1 35.7
05:40 1022 30.18 851 25.13 10.7 51.2 55 2.1 35.9
05:45 1022 30.18 851 25.13 10.5 50.8 56 2.2 35.9
05:50 1022 30.18 851 25.13 10.1 50.3 58 2.2 36
05:55 1022 30.18 851 25.13 9.8 49.7 59 2.1 35.8
06:00 1022 30.18 851 25.13 9.6 49.3 58 1.9 35.4
06:05 1022 30.18 851 25.13 9.7 49.5 58 1.9 35.3
06:10 1022 30.18 851 25.13 9.6 49.2 58 1.8 35.2
06:15 1022 30.18 851 25.13 9.5 49.1 57 1.5 34.7
06:20 1022 30.18 851 25.13 9.6 49.2 56 1.3 34.4
06:25 1022 30.18 851 25.13 9.7 49.4 56 1.3 34.4
06:30 1022 30.18 851 25.13 10 49.9 55 1.3 34.3
06:35 1022 30.18 851 25.13 10.2 50.4 54 1.5 34.6
06:40 1022 30.18 851 25.13 10.4 50.7 55 1.8 35.2
06:45 1022 30.18 851 25.13 10.5 50.8 55 1.9 35.4
06:50 1022 30.18 851 25.13 10.6 51.1 55 1.9 35.5
06:55 1022 30.18 851 25.13 10.7 51.2 55 2.1 35.8
07:00 1022 30.18 851 25.13 10.7 51.3 55 2 35.6
07:05 1022 30.18 851 25.13 10.9 51.5 54 2 35.5
07:10 1022 30.18 851 25.13 11 51.9 54 2.1 35.9
07:15 1022 30.18 851 25.13 11.4 52.4 53 2.2 36
07:20 1022 30.18 851 25.13 11.9 53.3 51 2 35.6
07:25 1022 30.18 851 25.13 12.4 54.2 49 2.1 35.7
07:30 1022 30.18 851 25.13 12.9 55.1 48 2.2 36
07:35 1022 30.18 851 25.13 12.9 55.3 50 2.8 37
07:40 1022 30.18 851 25.13 13.1 55.5 50 2.9 37.3
07:45 1022 30.18 851 25.13 13.3 55.9 49 2.9 37.2
07:50 1022 30.18 851 25.13 13.5 56.4 48 2.9 37.3
07:55 1022 30.18 851 25.13 13.7 56.6 48 3 37.3
08:00 1022 30.18 851 25.13 13.8 56.9 48 3.2 37.8
08:05 1022 30.18 851 25.13 14.4 57.8 46 2.9 37.2
08:10 1022 30.18 851 25.13 14.9 58.8 45 3.2 37.7
08:15 1022 30.18 851 25.13 15 59.1 45 3.2 37.7
08:20 1022 30.18 851 25.13 15.1 59.2 44 3.2 37.7
08:25 1022 30.18 851 25.13 15.6 60.1 43 3.2 37.7
08:30 1022 30.18 851 25.13 15.6 60.1 42 2.8 37
08:35 1022 30.18 851 25.13 15.6 60.1 41 2.6 36.7
08:40 1022 30.18 851 25.13 16 60.8 40 2.4 36.3
08:45 1022 30.18 851 25.13 16.3 61.4 40 2.8 37.1
08:50 1022 30.18 851 25.13 16 60.8 41 2.9 37.2
08:55 1022 30.18 851 25.13 15.9 60.6 40 2.2 36
09:00 1022 30.18 851 25.13 16.3 61.3 40 2.6 36.7
09:05 1022 30.18 851 25.13 17.2 62.9 38 2.9 37.3
09:10 1022 30.18 851 25.13 17.8 64.1 36 2.8 37.1
09:15 1022 30.18 851 25.13 17.3 63.2 38 3.1 37.7
09:20 1022 30.18 851 25.13 17.9 64.2 37 3.2 37.8
09:25 1022 30.18 851 25.13 18.1 64.6 37 3.3 38
09:30 1022 30.18 851 25.13 18.5 65.3 36 3.3 37.9
09:35 1022 30.18 851 25.13 18.3 64.9 35 2.6 36.8
09:40 1022 30.18 851 25.13 18.7 65.7 33 2.5 36.4
09:45 1022 30.18 851 25.13 19.3 66.7 33 2.8 37
09:50 1021 30.15 851 25.13 19.5 67.1 32 2.4 36.3
09:55 1021 30.15 851 25.13 19.6 67.3 33 2.9 37.2
10:00 1021 30.15 851 25.13 19.7 67.4 33 2.9 37.3
10:05 1021 30.15 851 25.13 20.3 68.6 33 3.9 39
10:10 1021 30.15 850 25.1 20 68 36 4.7 40.4
10:15 1021 30.15 850 25.1 19.8 67.6 36 4.3 39.8
10:20 1021 30.15 850 25.1 19 66.2 38 4.5 40.1
10:25 1021 30.15 850 25.1 19.7 67.5 37 4.7 40.5
10:30 1021 30.15 850 25.1 19.8 67.6 35 4.2 39.5
10:35 1021 30.15 850 25.1 20.7 69.3 35 4.9 40.9
10:40 1021 30.15 850 25.1 20.1 68.2 37 5.2 41.4
10:45 1021 30.15 850 25.1 19.9 67.8 37 4.8 40.7
10:50 1021 30.15 850 25.1 19.8 67.7 36 4.3 39.8
10:55 1021 30.15 850 25.1 20.4 68.8 35 4.6 40.3
11:00 1021 30.15 850 25.1 20.8 69.4 33 4.3 39.8
11:05 1021 30.15 850 25.1 21.1 69.9 33 4.5 40.1
11:10 1021 30.15 850 25.1 21 69.8 33 4.1 39.5
11:15 1021 30.15 850 25.1 20.9 69.6 32 3.8 38.9
11:20 1021 30.15 850 25.1 21.2 70.1 32 4.2 39.6
11:25 1021 30.15 850 25.1 20.8 69.4 33 4.1 39.5
11:30 1021 30.15 850 25.1 21.5 70.6 31 3.7 38.7
11:35 1021 30.15 850 25.1 21.5 70.7 32 4.4 40
11:40 1021 30.15 850 25.1 21.5 70.7 32 4.3 39.7
11:45 1021 30.15 850 25.1 21.4 70.5 30 3.5 38.3
11:50 1021 30.15 850 25.1 22.2 71.9 30 4 39.3
11:55 1021 30.15 850 25.1 22.7 72.9 30 4.3 39.7
12:00 1021 30.15 850 25.1 23.4 74.1 27 3.8 38.8
12:05 1021 30.15 850 25.1 23.5 74.2 28 4.3 39.7
12:10 1021 30.15 850 25.1 22.9 73.2 28 3.4 38.2
12:15 1020 30.12 850 25.1 22.6 72.7 29 4 39.2
12:20 1020 30.12 850 25.1 22.8 73.1 28 3.7 38.6
12:25 1020 30.12 850 25.1 23.9 75 24 2.4 36.3
12:30 1020 30.12 849 25.07 24.2 75.5 25 3.2 37.8
12:35 1020 30.12 849 25.07 23.6 74.4 26 3.2 37.7
12:40 1020 30.12 849 25.07 23.6 74.5 26 3.3 37.9
12:45 1020 30.12 849 25.07 24.1 75.4 25 3 37.3
12:50 1020 30.12 849 25.07 23.5 74.4 25 2.7 36.9
12:55 1020 30.12 849 25.07 23.2 73.7 24 1.6 34.9
13:00 1020 30.12 849 25.07 23.5 74.4 24 2 35.7
13:05 1020 30.12 849 25.07 24 75.2 24 2.2 35.9
13:10 1020 30.12 849 25.07 24.4 75.9 21 0.9 33.6
13:15 1020 30.12 849 25.07 24.6 76.3 21 1 33.8
13:20 1020 30.12 849 25.07 24.8 76.6 21 1.2 34.1
13:25 1020 30.12 849 25.07 24.8 76.7 21 1.1 34.1
13:30 1020 30.12 849 25.07 25.7 78.2 19 0.9 33.6
13:35 1020 30.12 849 25.07 25.5 77.8 17 -1.2 29.9
13:40 1020 30.12 849 25.07 25 77.1 20 0.6 33.1
13:45 1019 30.09 849 25.07 25.1 77.3 17 -1.5 29.2
13:50 1020 30.12 849 25.07 24.6 76.2 18 -1.1 30
13:55 1020 30.12 849 25.07 25.7 78.2 16 -1.5 29.3
14:00 1019 30.09 849 25.07 26.7 80.1 15 -1.5 29.3
14:05 1019 30.09 849 25.07 26.4 79.5 15 -1.9 28.5
14:10 1019 30.09 849 25.07 25.9 78.5 15 -2.5 27.5
14:15 1019 30.09 849 25.07 25.9 78.5 16 -1.3 29.6
14:20 1019 30.09 848 25.04 25.8 78.4 15 -2.2 28.1
14:25 1019 30.09 848 25.04 26.4 79.4 13 -3.7 25.4
14:30 1019 30.09 848 25.04 26.5 79.7 14 -2.5 27.5
14:35 1019 30.09 848 25.04 26.7 80.1 14 -2.6 27.3
14:40 1019 30.09 848 25.04 26.8 80.3 13 -3.7 25.4
14:45 1019 30.09 848 25.04 26 78.7 14 -3.2 26.3
14:50 1019 30.09 848 25.04 25.8 78.4 14 -3.2 26.2
14:55 1019 30.09 848 25.04 26.2 79.2 14 -3.4 25.9
15:00 1019 30.09 848 25.04 26.9 80.3 14 -2.7 27.1
15:05 1019 30.09 848 25.04 25.7 78.3 14 -3.7 25.3
15:10 1019 30.09 848 25.04 25.5 77.9 14 -3.6 25.5
15:15 1019 30.09 848 25.04 26.3 79.4 14 -3 26.6
15:20 1019 30.09 848 25.04 25.7 78.3 15 -2.8 26.9
15:25 1019 30.09 848 25.04 25.9 78.7 14 -3.2 26.3
15:30 1019 30.09 848 25.04 26 78.9 15 -2.6 27.3
15:35 1019 30.09 848 25.04 25.9 78.7 15 -2.1 28.2
15:40 1019 30.09 848 25.04 26.5 79.6 14 -2.8 26.9
15:45 1019 30.09 848 25.04 25.7 78.3 15 -2.5 27.5
15:50 1018 30.06 848 25.04 25.7 78.2 14 -3.3 26.1
15:55 1018 30.06 848 25.04 25.7 78.3 14 -3.9 25
16:00 1018 30.06 848 25.04 26.2 79.1 14 -3.5 25.6
16:05 1018 30.06 848 25.04 25.5 77.9 14 -3.6 25.5
16:10 1018 30.06 848 25.04 25.7 78.3 14 -3.7 25.4
16:15 1018 30.06 848 25.04 25.8 78.5 14 -3 26.5
16:20 1018 30.06 847 25.01 26.9 80.4 13 -3.1 26.4
16:25 1018 30.06 848 25.04 26.4 79.6 18 0.7 33.2
16:30 1018 30.06 847 25.01 25.8 78.4 23 3 37.5
16:35 1018 30.06 848 25.04 25.4 77.7 22 2.6 36.7
16:40 1018 30.06 847 25.01 25.2 77.3 22 2.2 36
16:45 1018 30.06 847 25.01 24.7 76.5 20 0.8 33.4
16:50 1018 30.06 847 25.01 24.4 76 23 2.5 36.4
16:55 1018 30.06 847 25.01 24.5 76.1 22 1.4 34.5
17:00 1018 30.06 847 25.01 24.5 76.1 24 3 37.5
17:05 1018 30.06 847 25.01 24.5 76.1 24 3 37.4
17:10 1018 30.06 847 25.01 24.5 76.1 24 3.1 37.5
17:15 1018 30.06 847 25.01 23.9 75 24 2.3 36.1
17:20 1018 30.06 847 25.01 24 75.3 24 2.6 36.6
17:25 1018 30.06 847 25.01 24.4 75.8 24 2.5 36.5
17:30 1018 30.06 847 25.01 24.1 75.3 26 3.6 38.6
17:35 1018 30.06 847 25.01 23.4 74.2 27 3.6 38.5
17:40 1018 30.06 847 25.01 23.4 74.1 28 4.1 39.4
17:45 1018 30.06 847 25.01 22.7 72.9 29 3.8 38.9
17:50 1018 30.06 847 25.01 22.5 72.5 29 3.6 38.5
17:55 1018 30.06 847 25.01 22.3 72.2 29 3.6 38.5
18:00 1018 30.06 847 25.01 22.4 72.4 28 3.4 38.1
18:05 1018 30.06 847 25.01 22.3 72.1 29 3.6 38.5
18:10 1018 30.06 847 25.01 22.4 72.3 29 3.5 38.2
18:15 1018 30.06 847 25.01 22.2 72 29 3.3 38
18:20 1018 30.06 847 25.01 22.1 71.8 29 3.5 38.3
18:25 1018 30.06 847 25.01 22.3 72.1 29 3.7 38.6
18:30 1018 30.06 847 25.01 22.5 72.4 29 3.9 39
18:35 1018 30.06 847 25.01 22.4 72.3 30 4.1 39.3
18:40 1018 30.06 847 25.01 22 71.7 31 4.2 39.5
18:45 1018 30.06 847 25.01 21.8 71.2 31 3.9 39.1
18:50 1018 30.06 847 25.01 21.7 71 31 3.8 38.8
18:55 1018 30.06 847 25.01 21.5 70.7 31 3.9 39
19:00 1018 30.06 847 25.01 21.3 70.3 32 4 39.2
19:05 1018 30.06 847 25.01 21.3 70.4 31 3.7 38.7
19:10 1018 30.06 847 25.01 21.3 70.4 31 3.7 38.7
19:15 1018 30.06 847 25.01 21.3 70.3 32 4 39.2
19:20 1018 30.06 847 25.01 21.1 69.9 33 4.2 39.5
19:25 1018 30.06 847 25.01 20.9 69.6 33 4.1 39.4
19:30 1018 30.06 847 25.01 20.7 69.2 33 4.2 39.5
19:35 1018 30.06 847 25.01 20.6 69 34 4.2 39.6
19:40 1018 30.06 847 25.01 20.4 68.7 34 4.3 39.8
19:45 1018 30.06 847 25.01 20.2 68.4 35 4.6 40.3
19:50 1018 30.06 847 25.01 20.1 68.1 35 4.4 40
19:55 1018 30.06 847 25.01 19.9 67.8 36 4.4 39.9
20:00 1018 30.06 847 25.01 19.7 67.4 36 4.4 39.9
20:05 1018 30.06 847 25.01 19.5 67.1 37 4.6 40.2
20:10 1018 30.06 847 25.01 19.3 66.8 37 4.6 40.2
20:15 1018 30.06 847 25.01 19.2 66.5 38 4.6 40.3
20:20 1018 30.06 847 25.01 19.1 66.3 38 4.5 40.2
20:25 1018 30.06 847 25.01 19 66.1 39 4.7 40.5
20:30 1018 30.06 847 25.01 18.8 65.8 39 4.7 40.5
20:35 1018 30.06 847 25.01 18.6 65.6 40 4.8 40.6
20:40 1018 30.06 847 25.01 18.5 65.2 40 4.8 40.7
20:45 1018 30.06 847 25.01 18.3 64.9 41 4.9 40.9
20:50 1018 30.06 847 25.01 18.2 64.7 41 4.7 40.5
20:55 1018 30.06 847 25.01 18.1 64.5 40 4.6 40.2
21:00 1018 30.06 847 25.01 18.1 64.5 41 4.7 40.4
21:05 1018 30.06 847 25.01 17.9 64.3 41 4.7 40.4
21:10 1018 30.06 847 25.01 17.8 64 42 4.8 40.6
21:15 1018 30.06 847 25.01 17.6 63.8 42 4.8 40.6
21:20 1018 30.06 847 25.01 17.6 63.6 42 4.7 40.4
21:25 1018 30.06 847 25.01 17.5 63.4 42 4.5 40.1
21:30 1018 30.06 847 25.01 17.5 63.4 42 4.6 40.3
21:35 1018 30.06 847 25.01 17.3 63.1 43 4.6 40.3
21:40 1018 30.06 847 25.01 17.2 62.9 42 4.4 39.9
21:45 1018 30.06 847 25.01 17.1 62.8 42 4.3 39.7
21:50 1018 30.06 847 25.01 17.1 62.8 42 4.3 39.8
21:55 1018 30.06 847 25.01 17 62.6 43 4.4 39.9
22:00 1018 30.06 847 25.01 16.9 62.4 43 4.3 39.7
22:05 1018 30.06 847 25.01 16.9 62.3 43 4.3 39.8
22:10 1018 30.06 847 25.01 16.8 62.2 43 4.3 39.7
22:15 1018 30.06 847 25.01 16.7 62 43 4.3 39.8
22:20 1018 30.06 847 25.01 16.6 61.9 43 4.3 39.7
22:25 1018 30.06 847 25.01 16.7 62 43 4.2 39.6
22:30 1018 30.06 847 25.01 16.6 62 44 4.3 39.7
22:35 1018 30.06 847 25.01 16.5 61.8 44 4.3 39.7
22:40 1018 30.06 847 25.01 16.4 61.5 45 4.4 40
22:45 1018 30.06 848 25.04 16.1 61 46 4.7 40.4
22:50 1018 30.06 848 25.04 16 60.7 46 4.4 40
22:55 1018 30.06 848 25.04 16 60.9 46 4.4 40
23:00 1018 30.06 848 25.04 15.9 60.6 47 4.6 40.3
23:05 1018 30.06 848 25.04 15.7 60.3 47 4.6 40.3
23:10 1018 30.06 848 25.04 15.6 60 48 4.7 40.4
23:15 1019 30.09 848 25.04 15.4 59.7 50 5.1 41.2
23:20 1019 30.09 848 25.04 15.2 59.3 51 5.1 41.1
23:25 1019 30.09 848 25.04 15 58.9 52 5.3 41.5
23:30 1019 30.09 848 25.04 14.9 58.8 51 5 41
23:35 1019 30.09 848 25.04 14.8 58.6 54 5.6 42.1
23:40 1019 30.09 848 25.04 14.7 58.5 51 4.9 40.8
23:45 1018 30.06 848 25.04 14.9 58.8 52 5.1 41.1
23:50 1019 30.09 848 25.04 14.7 58.5 52 4.9 40.9
23:55 1019 30.09 848 25.04 14.7 58.5 50 4.5 40
24:00 1019 30.09 848 25.04 14.5 58.1 51 4.6 40.4